sensor_id;sensor_type;location;lat;lon;timestamp;temperature;humidity
2657;DHT22;1338;48.176;11.792;2023-04-26T00:02:31;5.00;1.00
2657;DHT22;1338;48.176;11.792;2023-04-26T00:05:01;5.00;1.00
2657;DHT22;1338;48.176;11.792;2023-04-26T00:07:31;4.90;99.90
2657;DHT22;1338;48.176;11.792;2023-04-26T00:09:59;4.90;99.90
2657;DHT22;1338;48.176;11.792;2023-04-26T00:12:28;4.90;99.90
2657;DHT22;1338;48.176;11.792;2023-04-26T00:14:56;4.90;99.90
2657;DHT22;1338;48.176;11.792;2023-04-26T00:17:24;4.90;99.90
2657;DHT22;1338;48.176;11.792;2023-04-26T00:19:52;4.90;99.90
2657;DHT22;1338;48.176;11.792;2023-04-26T00:22:22;4.90;99.90
2657;DHT22;1338;48.176;11.792;2023-04-26T00:24:50;4.80;99.90
2657;DHT22;1338;48.176;11.792;2023-04-26T00:27:18;4.90;99.90
2657;DHT22;1338;48.176;11.792;2023-04-26T00:29:46;4.80;99.90
2657;DHT22;1338;48.176;11.792;2023-04-26T00:32:14;4.80;99.90
2657;DHT22;1338;48.176;11.792;2023-04-26T00:34:43;4.80;99.90
2657;DHT22;1338;48.176;11.792;2023-04-26T00:37:12;4.80;99.90
2657;DHT22;1338;48.176;11.792;2023-04-26T00:39:41;4.80;99.90
2657;DHT22;1338;48.176;11.792;2023-04-26T00:42:09;4.80;99.90
2657;DHT22;1338;48.176;11.792;2023-04-26T00:44:37;4.90;99.90
2657;DHT22;1338;48.176;11.792;2023-04-26T00:47:06;4.80;99.90
2657;DHT22;1338;48.176;11.792;2023-04-26T00:49:35;4.70;99.90
2657;DHT22;1338;48.176;11.792;2023-04-26T00:52:04;4.70;99.90
2657;DHT22;1338;48.176;11.792;2023-04-26T00:54:32;4.70;99.90
2657;DHT22;1338;48.176;11.792;2023-04-26T00:57:01;4.70;99.90
2657;DHT22;1338;48.176;11.792;2023-04-26T00:59:30;4.80;99.90
2657;DHT22;1338;48.176;11.792;2023-04-26T01:01:59;4.70;99.90
2657;DHT22;1338;48.176;11.792;2023-04-26T01:04:27;4.60;99.90
2657;DHT22;1338;48.176;11.792;2023-04-26T01:06:56;4.60;99.90
2657;DHT22;1338;48.176;11.792;2023-04-26T01:09:25;4.70;99.90
2657;DHT22;1338;48.176;11.792;2023-04-26T01:11:54;4.70;99.90
2657;DHT22;1338;48.176;11.792;2023-04-26T01:14:26;4.60;99.90
2657;DHT22;1338;48.176;11.792;2023-04-26T01:16:55;4.60;99.90
2657;DHT22;1338;48.176;11.792;2023-04-26T01:19:23;4.60;99.90
2657;DHT22;1338;48.176;11.792;2023-04-26T01:21:51;4.60;99.90
2657;DHT22;1338;48.176;11.792;2023-04-26T01:24:21;4.60;99.90
2657;DHT22;1338;48.176;11.792;2023-04-26T01:26:49;4.60;99.90
2657;DHT22;1338;48.176;11.792;2023-04-26T01:29:20;4.60;99.90
2657;DHT22;1338;48.176;11.792;2023-04-26T01:31:50;4.60;99.90
2657;DHT22;1338;48.176;11.792;2023-04-26T01:34:18;4.60;1.00
2657;DHT22;1338;48.176;11.792;2023-04-26T01:36:46;4.60;1.00
2657;DHT22;1338;48.176;11.792;2023-04-26T01:39:14;4.60;1.00
2657;DHT22;1338;48.176;11.792;2023-04-26T01:41:44;4.60;1.00
2657;DHT22;1338;48.176;11.792;2023-04-26T01:44:12;4.60;1.00
2657;DHT22;1338;48.176;11.792;2023-04-26T01:46:40;4.60;1.00
2657;DHT22;1338;48.176;11.792;2023-04-26T01:49:11;4.60;1.00
2657;DHT22;1338;48.176;11.792;2023-04-26T01:51:40;4.70;1.00
2657;DHT22;1338;48.176;11.792;2023-04-26T01:54:08;4.60;1.00
2657;DHT22;1338;48.176;11.792;2023-04-26T01:56:36;4.70;1.00
2657;DHT22;1338;48.176;11.792;2023-04-26T01:59:05;4.70;1.00
2657;DHT22;1338;48.176;11.792;2023-04-26T02:01:33;4.70;1.00
2657;DHT22;1338;48.176;11.792;2023-04-26T02:04:02;4.60;1.00
2657;DHT22;1338;48.176;11.792;2023-04-26T02:06:30;4.70;1.00
2657;DHT22;1338;48.176;11.792;2023-04-26T02:08:58;4.60;1.00
2657;DHT22;1338;48.176;11.792;2023-04-26T02:11:26;4.60;1.00
2657;DHT22;1338;48.176;11.792;2023-04-26T02:13:54;4.60;1.00
2657;DHT22;1338;48.176;11.792;2023-04-26T02:16:24;4.70;1.00
2657;DHT22;1338;48.176;11.792;2023-04-26T02:18:53;4.60;1.00
2657;DHT22;1338;48.176;11.792;2023-04-26T02:21:21;4.60;1.00
2657;DHT22;1338;48.176;11.792;2023-04-26T02:23:49;4.60;1.00
2657;DHT22;1338;48.176;11.792;2023-04-26T02:26:17;4.60;1.00
2657;DHT22;1338;48.176;11.792;2023-04-26T02:28:46;4.50;1.00
2657;DHT22;1338;48.176;11.792;2023-04-26T02:31:14;4.50;1.00
2657;DHT22;1338;48.176;11.792;2023-04-26T02:33:43;4.50;1.00
2657;DHT22;1338;48.176;11.792;2023-04-26T02:36:12;4.50;1.00
2657;DHT22;1338;48.176;11.792;2023-04-26T02:38:40;4.50;99.90
2657;DHT22;1338;48.176;11.792;2023-04-26T02:41:08;4.50;99.90
2657;DHT22;1338;48.176;11.792;2023-04-26T02:43:36;4.50;99.90
2657;DHT22;1338;48.176;11.792;2023-04-26T02:46:06;4.60;99.90
2657;DHT22;1338;48.176;11.792;2023-04-26T02:48:34;4.60;99.90
2657;DHT22;1338;48.176;11.792;2023-04-26T02:51:04;4.60;98.20
2657;DHT22;1338;48.176;11.792;2023-04-26T02:53:33;4.60;99.90
2657;DHT22;1338;48.176;11.792;2023-04-26T02:56:01;4.50;99.90
2657;DHT22;1338;48.176;11.792;2023-04-26T02:58:29;4.50;99.90
2657;DHT22;1338;48.176;11.792;2023-04-26T03:00:57;4.60;99.90
2657;DHT22;1338;48.176;11.792;2023-04-26T03:03:28;4.50;99.90
2657;DHT22;1338;48.176;11.792;2023-04-26T03:05:57;4.50;99.90
2657;DHT22;1338;48.176;11.792;2023-04-26T03:08:26;4.40;99.90
2657;DHT22;1338;48.176;11.792;2023-04-26T03:10:54;4.40;99.90
2657;DHT22;1338;48.176;11.792;2023-04-26T03:13:23;4.40;99.90
2657;DHT22;1338;48.176;11.792;2023-04-26T03:15:53;4.40;99.90
2657;DHT22;1338;48.176;11.792;2023-04-26T03:18:21;4.40;1.00
2657;DHT22;1338;48.176;11.792;2023-04-26T03:20:51;4.40;1.00
2657;DHT22;1338;48.176;11.792;2023-04-26T03:23:19;4.30;1.00
2657;DHT22;1338;48.176;11.792;2023-04-26T03:25:52;4.30;1.00
2657;DHT22;1338;48.176;11.792;2023-04-26T03:28:21;4.30;1.00
2657;DHT22;1338;48.176;11.792;2023-04-26T03:30:49;4.30;1.00
2657;DHT22;1338;48.176;11.792;2023-04-26T03:33:19;4.30;99.90
2657;DHT22;1338;48.176;11.792;2023-04-26T03:35:47;4.30;99.90
2657;DHT22;1338;48.176;11.792;2023-04-26T03:38:15;4.40;1.00
2657;DHT22;1338;48.176;11.792;2023-04-26T03:40:44;4.30;1.00
2657;DHT22;1338;48.176;11.792;2023-04-26T03:43:13;4.30;1.00
2657;DHT22;1338;48.176;11.792;2023-04-26T03:45:46;4.20;1.00
2657;DHT22;1338;48.176;11.792;2023-04-26T03:48:16;4.20;1.00
2657;DHT22;1338;48.176;11.792;2023-04-26T03:50:44;4.20;1.00
2657;DHT22;1338;48.176;11.792;2023-04-26T03:53:12;4.20;1.00
2657;DHT22;1338;48.176;11.792;2023-04-26T03:55:41;4.20;1.00
2657;DHT22;1338;48.176;11.792;2023-04-26T03:58:09;4.20;1.00
2657;DHT22;1338;48.176;11.792;2023-04-26T04:00:38;4.20;1.00
2657;DHT22;1338;48.176;11.792;2023-04-26T04:03:08;4.10;1.00
2657;DHT22;1338;48.176;11.792;2023-04-26T04:05:36;4.10;1.00
2657;DHT22;1338;48.176;11.792;2023-04-26T04:08:05;4.10;1.00
2657;DHT22;1338;48.176;11.792;2023-04-26T04:10:34;4.10;1.00
2657;DHT22;1338;48.176;11.792;2023-04-26T04:13:03;4.10;1.00
2657;DHT22;1338;48.176;11.792;2023-04-26T04:15:31;4.10;1.00
2657;DHT22;1338;48.176;11.792;2023-04-26T04:18:01;4.10;1.00
2657;DHT22;1338;48.176;11.792;2023-04-26T04:20:30;4.10;1.00
2657;DHT22;1338;48.176;11.792;2023-04-26T04:22:59;4.00;1.00
2657;DHT22;1338;48.176;11.792;2023-04-26T04:25:28;4.00;1.00
2657;DHT22;1338;48.176;11.792;2023-04-26T04:27:59;4.00;1.00
2657;DHT22;1338;48.176;11.792;2023-04-26T04:30:28;4.10;1.00
2657;DHT22;1338;48.176;11.792;2023-04-26T04:32:57;4.10;1.00
2657;DHT22;1338;48.176;11.792;2023-04-26T04:35:29;4.10;1.00
2657;DHT22;1338;48.176;11.792;2023-04-26T04:38:01;4.20;1.00
2657;DHT22;1338;48.176;11.792;2023-04-26T04:40:30;4.50;1.00
2657;DHT22;1338;48.176;11.792;2023-04-26T04:42:59;4.40;1.00
2657;DHT22;1338;48.176;11.792;2023-04-26T04:45:30;4.60;1.00
2657;DHT22;1338;48.176;11.792;2023-04-26T04:47:59;4.60;1.00
2657;DHT22;1338;48.176;11.792;2023-04-26T04:50:29;4.70;99.90
2657;DHT22;1338;48.176;11.792;2023-04-26T04:52:58;5.20;1.00
2657;DHT22;1338;48.176;11.792;2023-04-26T04:55:27;5.20;99.90
2657;DHT22;1338;48.176;11.792;2023-04-26T04:57:56;4.70;99.90
2657;DHT22;1338;48.176;11.792;2023-04-26T05:00:24;4.80;99.90
2657;DHT22;1338;48.176;11.792;2023-04-26T05:03:13;4.90;99.90
2657;DHT22;1338;48.176;11.792;2023-04-26T05:05:43;4.60;99.90
2657;DHT22;1338;48.176;11.792;2023-04-26T05:08:11;4.90;1.00
2657;DHT22;1338;48.176;11.792;2023-04-26T05:10:39;4.70;99.90
2657;DHT22;1338;48.176;11.792;2023-04-26T05:13:08;5.00;99.90
2657;DHT22;1338;48.176;11.792;2023-04-26T05:15:38;5.30;99.90
2657;DHT22;1338;48.176;11.792;2023-04-26T05:18:06;4.70;99.90
2657;DHT22;1338;48.176;11.792;2023-04-26T05:20:35;4.60;99.90
2657;DHT22;1338;48.176;11.792;2023-04-26T05:23:05;4.50;99.90
2657;DHT22;1338;48.176;11.792;2023-04-26T05:25:36;4.50;99.90
2657;DHT22;1338;48.176;11.792;2023-04-26T05:28:24;4.60;99.90
2657;DHT22;1338;48.176;11.792;2023-04-26T05:31:21;4.60;99.90
2657;DHT22;1338;48.176;11.792;2023-04-26T05:34:01;4.60;99.90
2657;DHT22;1338;48.176;11.792;2023-04-26T05:36:35;4.70;99.90
2657;DHT22;1338;48.176;11.792;2023-04-26T05:39:05;4.60;99.90
2657;DHT22;1338;48.176;11.792;2023-04-26T05:41:34;4.60;99.90
2657;DHT22;1338;48.176;11.792;2023-04-26T05:44:02;4.60;99.90
2657;DHT22;1338;48.176;11.792;2023-04-26T05:46:31;4.80;99.90
2657;DHT22;1338;48.176;11.792;2023-04-26T05:48:59;4.80;99.90
2657;DHT22;1338;48.176;11.792;2023-04-26T05:51:27;4.90;99.90
2657;DHT22;1338;48.176;11.792;2023-04-26T05:53:55;4.80;99.90
2657;DHT22;1338;48.176;11.792;2023-04-26T05:56:25;4.90;99.90
2657;DHT22;1338;48.176;11.792;2023-04-26T05:58:54;4.70;99.90
2657;DHT22;1338;48.176;11.792;2023-04-26T06:01:23;4.60;99.90
2657;DHT22;1338;48.176;11.792;2023-04-26T06:03:52;4.80;99.90
2657;DHT22;1338;48.176;11.792;2023-04-26T06:06:29;4.90;99.90
2657;DHT22;1338;48.176;11.792;2023-04-26T06:08:57;5.00;1.00
2657;DHT22;1338;48.176;11.792;2023-04-26T06:11:28;4.90;1.00
2657;DHT22;1338;48.176;11.792;2023-04-26T06:13:56;5.00;1.00
2657;DHT22;1338;48.176;11.792;2023-04-26T06:16:24;5.10;1.00
2657;DHT22;1338;48.176;11.792;2023-04-26T06:18:53;5.00;1.00
2657;DHT22;1338;48.176;11.792;2023-04-26T06:21:21;5.00;1.00
2657;DHT22;1338;48.176;11.792;2023-04-26T06:23:50;5.00;1.00
2657;DHT22;1338;48.176;11.792;2023-04-26T06:26:20;5.20;1.00
2657;DHT22;1338;48.176;11.792;2023-04-26T06:28:50;5.10;1.00
2657;DHT22;1338;48.176;11.792;2023-04-26T06:31:18;5.30;1.00
2657;DHT22;1338;48.176;11.792;2023-04-26T06:33:48;5.20;1.00
2657;DHT22;1338;48.176;11.792;2023-04-26T06:36:17;5.10;1.00
2657;DHT22;1338;48.176;11.792;2023-04-26T06:38:45;5.20;1.00
2657;DHT22;1338;48.176;11.792;2023-04-26T06:41:13;5.40;1.00
2657;DHT22;1338;48.176;11.792;2023-04-26T06:43:41;5.30;1.00
2657;DHT22;1338;48.176;11.792;2023-04-26T06:46:20;5.30;1.00
2657;DHT22;1338;48.176;11.792;2023-04-26T06:48:52;5.30;1.00
2657;DHT22;1338;48.176;11.792;2023-04-26T06:51:21;5.60;1.00
2657;DHT22;1338;48.176;11.792;2023-04-26T06:53:49;5.60;1.00
2657;DHT22;1338;48.176;11.792;2023-04-26T06:56:18;5.60;1.00
2657;DHT22;1338;48.176;11.792;2023-04-26T06:58:58;5.90;1.00
2657;DHT22;1338;48.176;11.792;2023-04-26T07:01:28;5.70;1.00
2657;DHT22;1338;48.176;11.792;2023-04-26T07:04:00;6.00;1.00
2657;DHT22;1338;48.176;11.792;2023-04-26T07:06:29;5.80;1.00
2657;DHT22;1338;48.176;11.792;2023-04-26T07:08:58;5.80;1.00
2657;DHT22;1338;48.176;11.792;2023-04-26T07:11:28;5.70;1.00
2657;DHT22;1338;48.176;11.792;2023-04-26T07:13:56;5.80;1.00
2657;DHT22;1338;48.176;11.792;2023-04-26T07:16:25;5.70;1.00
2657;DHT22;1338;48.176;11.792;2023-04-26T07:18:55;5.80;1.00
2657;DHT22;1338;48.176;11.792;2023-04-26T07:21:24;5.90;1.00
2657;DHT22;1338;48.176;11.792;2023-04-26T07:23:53;5.70;1.00
2657;DHT22;1338;48.176;11.792;2023-04-26T07:26:22;6.10;1.00
2657;DHT22;1338;48.176;11.792;2023-04-26T07:28:50;6.40;1.00
2657;DHT22;1338;48.176;11.792;2023-04-26T07:31:18;6.40;1.00
2657;DHT22;1338;48.176;11.792;2023-04-26T07:33:47;6.30;99.90
2657;DHT22;1338;48.176;11.792;2023-04-26T07:36:16;6.30;99.90
2657;DHT22;1338;48.176;11.792;2023-04-26T07:38:45;6.70;1.00
2657;DHT22;1338;48.176;11.792;2023-04-26T07:41:13;6.80;99.90
2657;DHT22;1338;48.176;11.792;2023-04-26T07:43:42;6.90;99.90
2657;DHT22;1338;48.176;11.792;2023-04-26T07:46:10;6.60;99.90
2657;DHT22;1338;48.176;11.792;2023-04-26T07:48:38;7.00;99.90
2657;DHT22;1338;48.176;11.792;2023-04-26T07:51:07;7.00;99.90
2657;DHT22;1338;48.176;11.792;2023-04-26T07:53:37;6.90;99.90
2657;DHT22;1338;48.176;11.792;2023-04-26T07:56:06;7.00;99.90
2657;DHT22;1338;48.176;11.792;2023-04-26T07:58:35;7.10;99.90
2657;DHT22;1338;48.176;11.792;2023-04-26T08:01:04;7.20;99.90
2657;DHT22;1338;48.176;11.792;2023-04-26T08:03:33;7.00;99.90
2657;DHT22;1338;48.176;11.792;2023-04-26T08:06:01;7.20;99.90
2657;DHT22;1338;48.176;11.792;2023-04-26T08:08:30;7.20;99.90
2657;DHT22;1338;48.176;11.792;2023-04-26T08:11:00;7.10;99.90
2657;DHT22;1338;48.176;11.792;2023-04-26T08:13:28;7.20;99.90
2657;DHT22;1338;48.176;11.792;2023-04-26T08:15:57;7.30;99.90
2657;DHT22;1338;48.176;11.792;2023-04-26T08:18:25;7.20;99.90
2657;DHT22;1338;48.176;11.792;2023-04-26T08:20:53;7.10;99.90
2657;DHT22;1338;48.176;11.792;2023-04-26T08:23:21;7.20;99.90
2657;DHT22;1338;48.176;11.792;2023-04-26T08:25:49;7.30;99.90
2657;DHT22;1338;48.176;11.792;2023-04-26T08:28:19;7.20;99.90
2657;DHT22;1338;48.176;11.792;2023-04-26T08:30:47;7.00;99.90
2657;DHT22;1338;48.176;11.792;2023-04-26T08:33:17;6.90;99.90
2657;DHT22;1338;48.176;11.792;2023-04-26T08:35:45;7.10;99.90
2657;DHT22;1338;48.176;11.792;2023-04-26T08:38:13;7.40;99.90
2657;DHT22;1338;48.176;11.792;2023-04-26T08:40:42;7.20;99.90
2657;DHT22;1338;48.176;11.792;2023-04-26T08:43:14;7.90;99.90
2657;DHT22;1338;48.176;11.792;2023-04-26T08:45:45;7.60;99.90
2657;DHT22;1338;48.176;11.792;2023-04-26T08:48:14;8.10;99.90
2657;DHT22;1338;48.176;11.792;2023-04-26T08:50:44;8.70;99.90
2657;DHT22;1338;48.176;11.792;2023-04-26T08:53:13;8.40;99.90
2657;DHT22;1338;48.176;11.792;2023-04-26T08:55:47;8.60;99.90
2657;DHT22;1338;48.176;11.792;2023-04-26T08:58:16;8.40;99.90
2657;DHT22;1338;48.176;11.792;2023-04-26T09:00:46;7.90;99.90
2657;DHT22;1338;48.176;11.792;2023-04-26T09:03:14;7.70;99.90
2657;DHT22;1338;48.176;11.792;2023-04-26T09:05:43;8.60;99.90
2657;DHT22;1338;48.176;11.792;2023-04-26T09:08:15;8.10;99.90
2657;DHT22;1338;48.176;11.792;2023-04-26T09:10:44;8.30;99.90
2657;DHT22;1338;48.176;11.792;2023-04-26T09:13:12;7.90;99.90
2657;DHT22;1338;48.176;11.792;2023-04-26T09:15:41;8.10;99.90
2657;DHT22;1338;48.176;11.792;2023-04-26T09:18:17;8.60;99.90
2657;DHT22;1338;48.176;11.792;2023-04-26T09:21:01;8.00;99.90
2657;DHT22;1338;48.176;11.792;2023-04-26T09:23:29;7.70;99.90
2657;DHT22;1338;48.176;11.792;2023-04-26T09:26:16;7.90;99.90
2657;DHT22;1338;48.176;11.792;2023-04-26T09:28:44;8.40;99.90
2657;DHT22;1338;48.176;11.792;2023-04-26T09:31:36;8.20;99.90
2657;DHT22;1338;48.176;11.792;2023-04-26T09:34:07;7.90;99.90
2657;DHT22;1338;48.176;11.792;2023-04-26T09:36:51;7.90;99.90
2657;DHT22;1338;48.176;11.792;2023-04-26T09:39:32;8.60;99.90
2657;DHT22;1338;48.176;11.792;2023-04-26T09:42:01;9.20;99.90
2657;DHT22;1338;48.176;11.792;2023-04-26T09:44:30;9.20;96.30
2657;DHT22;1338;48.176;11.792;2023-04-26T09:47:02;9.70;92.40
2657;DHT22;1338;48.176;11.792;2023-04-26T09:49:42;10.20;94.20
2657;DHT22;1338;48.176;11.792;2023-04-26T09:52:10;9.90;86.70
2657;DHT22;1338;48.176;11.792;2023-04-26T09:54:40;9.40;60.80
2657;DHT22;1338;48.176;11.792;2023-04-26T09:57:09;10.00;65.90
2657;DHT22;1338;48.176;11.792;2023-04-26T09:59:44;9.20;46.40
2657;DHT22;1338;48.176;11.792;2023-04-26T10:02:15;8.70;62.50
2657;DHT22;1338;48.176;11.792;2023-04-26T10:04:46;8.70;54.40
2657;DHT22;1338;48.176;11.792;2023-04-26T10:07:16;8.60;55.60
2657;DHT22;1338;48.176;11.792;2023-04-26T10:09:45;9.00;64.10
2657;DHT22;1338;48.176;11.792;2023-04-26T10:12:15;9.00;30.30
2657;DHT22;1338;48.176;11.792;2023-04-26T10:14:44;8.90;56.60
2657;DHT22;1338;48.176;11.792;2023-04-26T10:17:13;8.80;50.80
2657;DHT22;1338;48.176;11.792;2023-04-26T10:19:42;9.00;41.80
2657;DHT22;1338;48.176;11.792;2023-04-26T10:22:16;8.90;47.80
2657;DHT22;1338;48.176;11.792;2023-04-26T10:24:48;9.20;51.60
2657;DHT22;1338;48.176;11.792;2023-04-26T10:27:47;9.60;79.50
2657;DHT22;1338;48.176;11.792;2023-04-26T10:30:16;9.70;55.90
2657;DHT22;1338;48.176;11.792;2023-04-26T10:33:12;9.70;29.20
2657;DHT22;1338;48.176;11.792;2023-04-26T10:36:06;9.10;18.70
2657;DHT22;1338;48.176;11.792;2023-04-26T10:38:37;9.80;22.70
2657;DHT22;1338;48.176;11.792;2023-04-26T10:41:35;9.70;21.50
2657;DHT22;1338;48.176;11.792;2023-04-26T10:44:36;9.90;45.30
2657;DHT22;1338;48.176;11.792;2023-04-26T10:47:05;9.30;29.90
2657;DHT22;1338;48.176;11.792;2023-04-26T10:49:44;9.10;15.20
2657;DHT22;1338;48.176;11.792;2023-04-26T10:52:16;9.50;12.10
2657;DHT22;1338;48.176;11.792;2023-04-26T10:54:54;9.60;1.50
2657;DHT22;1338;48.176;11.792;2023-04-26T11:00:27;10.60;25.70
2657;DHT22;1338;48.176;11.792;2023-04-26T11:03:05;11.00;46.00
2657;DHT22;1338;48.176;11.792;2023-04-26T11:05:51;10.80;1.00
2657;DHT22;1338;48.176;11.792;2023-04-26T11:08:25;10.30;1.00
2657;DHT22;1338;48.176;11.792;2023-04-26T11:11:05;10.70;1.00
2657;DHT22;1338;48.176;11.792;2023-04-26T11:13:35;9.80;1.00
2657;DHT22;1338;48.176;11.792;2023-04-26T11:16:05;10.20;1.00
2657;DHT22;1338;48.176;11.792;2023-04-26T11:18:35;10.20;1.00
2657;DHT22;1338;48.176;11.792;2023-04-26T11:21:05;10.40;1.00
2657;DHT22;1338;48.176;11.792;2023-04-26T11:23:34;9.80;1.00
2657;DHT22;1338;48.176;11.792;2023-04-26T11:26:05;9.60;1.00
2657;DHT22;1338;48.176;11.792;2023-04-26T11:28:35;9.80;1.00
2657;DHT22;1338;48.176;11.792;2023-04-26T11:31:04;9.30;1.00
2657;DHT22;1338;48.176;11.792;2023-04-26T11:33:33;9.50;1.00
2657;DHT22;1338;48.176;11.792;2023-04-26T11:36:01;9.90;1.00
2657;DHT22;1338;48.176;11.792;2023-04-26T11:38:29;9.60;1.00
2657;DHT22;1338;48.176;11.792;2023-04-26T11:40:59;10.10;1.00
2657;DHT22;1338;48.176;11.792;2023-04-26T11:43:35;10.60;1.00
2657;DHT22;1338;48.176;11.792;2023-04-26T11:46:05;10.70;1.00
2657;DHT22;1338;48.176;11.792;2023-04-26T11:48:35;11.20;1.00
2657;DHT22;1338;48.176;11.792;2023-04-26T11:51:04;11.00;1.00
2657;DHT22;1338;48.176;11.792;2023-04-26T11:53:37;11.30;1.00
2657;DHT22;1338;48.176;11.792;2023-04-26T11:56:16;11.60;1.00
2657;DHT22;1338;48.176;11.792;2023-04-26T11:58:46;11.70;1.00
2657;DHT22;1338;48.176;11.792;2023-04-26T12:01:21;12.30;1.00
2657;DHT22;1338;48.176;11.792;2023-04-26T12:03:50;11.80;1.00
2657;DHT22;1338;48.176;11.792;2023-04-26T12:06:24;10.60;1.00
2657;DHT22;1338;48.176;11.792;2023-04-26T12:08:52;10.80;1.00
2657;DHT22;1338;48.176;11.792;2023-04-26T12:11:20;10.60;1.00
2657;DHT22;1338;48.176;11.792;2023-04-26T12:13:51;10.80;1.00
2657;DHT22;1338;48.176;11.792;2023-04-26T12:16:21;10.90;1.00
2657;DHT22;1338;48.176;11.792;2023-04-26T12:18:53;11.10;1.00
2657;DHT22;1338;48.176;11.792;2023-04-26T12:21:22;11.60;1.00
2657;DHT22;1338;48.176;11.792;2023-04-26T12:23:54;11.20;1.00
2657;DHT22;1338;48.176;11.792;2023-04-26T12:26:40;11.20;1.00
2657;DHT22;1338;48.176;11.792;2023-04-26T12:29:10;12.30;1.00
2657;DHT22;1338;48.176;11.792;2023-04-26T12:31:38;11.40;1.00
2657;DHT22;1338;48.176;11.792;2023-04-26T12:34:06;12.00;1.00
2657;DHT22;1338;48.176;11.792;2023-04-26T12:36:35;11.60;1.00
2657;DHT22;1338;48.176;11.792;2023-04-26T12:39:04;11.30;1.00
2657;DHT22;1338;48.176;11.792;2023-04-26T12:41:32;11.60;1.00
2657;DHT22;1338;48.176;11.792;2023-04-26T12:44:01;11.80;1.00
2657;DHT22;1338;48.176;11.792;2023-04-26T12:46:30;12.40;1.00
2657;DHT22;1338;48.176;11.792;2023-04-26T12:48:58;12.80;1.00
2657;DHT22;1338;48.176;11.792;2023-04-26T12:51:27;11.90;1.00
2657;DHT22;1338;48.176;11.792;2023-04-26T12:53:56;11.40;1.00
2657;DHT22;1338;48.176;11.792;2023-04-26T12:56:24;10.90;1.00
2657;DHT22;1338;48.176;11.792;2023-04-26T12:58:52;11.10;1.00
2657;DHT22;1338;48.176;11.792;2023-04-26T13:01:20;11.00;1.00
2657;DHT22;1338;48.176;11.792;2023-04-26T13:03:50;11.00;1.00
2657;DHT22;1338;48.176;11.792;2023-04-26T13:06:19;10.70;1.00
2657;DHT22;1338;48.176;11.792;2023-04-26T13:08:47;10.40;1.00
2657;DHT22;1338;48.176;11.792;2023-04-26T13:11:15;10.60;1.00
2657;DHT22;1338;48.176;11.792;2023-04-26T13:13:44;10.30;1.00
2657;DHT22;1338;48.176;11.792;2023-04-26T13:16:12;10.70;1.00
2657;DHT22;1338;48.176;11.792;2023-04-26T13:18:40;11.10;1.00
2657;DHT22;1338;48.176;11.792;2023-04-26T13:21:10;11.70;1.00
2657;DHT22;1338;48.176;11.792;2023-04-26T13:23:38;11.30;1.00
2657;DHT22;1338;48.176;11.792;2023-04-26T13:26:06;11.70;1.00
2657;DHT22;1338;48.176;11.792;2023-04-26T13:28:35;11.90;1.00
2657;DHT22;1338;48.176;11.792;2023-04-26T13:31:03;12.60;1.00
2657;DHT22;1338;48.176;11.792;2023-04-26T13:33:32;12.40;1.00
2657;DHT22;1338;48.176;11.792;2023-04-26T13:36:00;11.40;1.00
2657;DHT22;1338;48.176;11.792;2023-04-26T13:38:30;10.90;1.00
2657;DHT22;1338;48.176;11.792;2023-04-26T13:40:59;11.50;1.00
2657;DHT22;1338;48.176;11.792;2023-04-26T13:43:27;11.50;1.00
2657;DHT22;1338;48.176;11.792;2023-04-26T13:45:55;11.00;1.00
2657;DHT22;1338;48.176;11.792;2023-04-26T13:48:23;11.30;1.00
2657;DHT22;1338;48.176;11.792;2023-04-26T13:50:53;12.30;1.00
2657;DHT22;1338;48.176;11.792;2023-04-26T13:53:22;12.20;1.00
2657;DHT22;1338;48.176;11.792;2023-04-26T13:55:51;11.90;1.00
2657;DHT22;1338;48.176;11.792;2023-04-26T13:58:20;11.70;1.00
2657;DHT22;1338;48.176;11.792;2023-04-26T14:00:48;11.40;1.00
2657;DHT22;1338;48.176;11.792;2023-04-26T14:03:16;12.30;1.00
2657;DHT22;1338;48.176;11.792;2023-04-26T14:05:44;12.30;1.00
2657;DHT22;1338;48.176;11.792;2023-04-26T14:08:12;11.60;1.00
2657;DHT22;1338;48.176;11.792;2023-04-26T14:10:41;12.00;1.00
2657;DHT22;1338;48.176;11.792;2023-04-26T14:13:10;12.40;1.00
2657;DHT22;1338;48.176;11.792;2023-04-26T14:15:38;12.30;1.00
2657;DHT22;1338;48.176;11.792;2023-04-26T14:18:07;11.00;1.00
2657;DHT22;1338;48.176;11.792;2023-04-26T14:20:35;11.00;1.00
2657;DHT22;1338;48.176;11.792;2023-04-26T14:23:03;11.50;1.00
2657;DHT22;1338;48.176;11.792;2023-04-26T14:25:32;11.80;1.00
2657;DHT22;1338;48.176;11.792;2023-04-26T14:28:00;11.30;1.00
2657;DHT22;1338;48.176;11.792;2023-04-26T14:30:30;11.90;1.00
2657;DHT22;1338;48.176;11.792;2023-04-26T14:32:58;12.20;1.00
2657;DHT22;1338;48.176;11.792;2023-04-26T14:35:27;12.40;1.00
2657;DHT22;1338;48.176;11.792;2023-04-26T14:37:55;11.80;1.00
2657;DHT22;1338;48.176;11.792;2023-04-26T14:40:23;12.90;1.00
2657;DHT22;1338;48.176;11.792;2023-04-26T14:42:52;13.20;1.00
2657;DHT22;1338;48.176;11.792;2023-04-26T14:45:20;12.40;1.00
2657;DHT22;1338;48.176;11.792;2023-04-26T14:48:00;11.90;1.00
2657;DHT22;1338;48.176;11.792;2023-04-26T14:50:29;11.80;1.00
2657;DHT22;1338;48.176;11.792;2023-04-26T14:52:57;11.50;1.00
2657;DHT22;1338;48.176;11.792;2023-04-26T14:55:25;11.00;1.00
2657;DHT22;1338;48.176;11.792;2023-04-26T14:57:54;11.50;1.00
2657;DHT22;1338;48.176;11.792;2023-04-26T15:00:22;11.90;1.00
2657;DHT22;1338;48.176;11.792;2023-04-26T15:02:51;12.00;1.00
2657;DHT22;1338;48.176;11.792;2023-04-26T15:05:21;12.50;1.00
2657;DHT22;1338;48.176;11.792;2023-04-26T15:07:50;13.80;1.00
2657;DHT22;1338;48.176;11.792;2023-04-26T15:10:18;13.10;1.00
2657;DHT22;1338;48.176;11.792;2023-04-26T15:12:47;12.90;1.00
2657;DHT22;1338;48.176;11.792;2023-04-26T15:15:15;12.90;1.00
2657;DHT22;1338;48.176;11.792;2023-04-26T15:17:43;13.00;1.00
2657;DHT22;1338;48.176;11.792;2023-04-26T15:20:12;11.30;1.00
2657;DHT22;1338;48.176;11.792;2023-04-26T15:22:44;11.10;1.00
2657;DHT22;1338;48.176;11.792;2023-04-26T15:25:15;11.10;1.00
2657;DHT22;1338;48.176;11.792;2023-04-26T15:27:43;10.90;1.00
2657;DHT22;1338;48.176;11.792;2023-04-26T15:30:13;11.20;1.00
2657;DHT22;1338;48.176;11.792;2023-04-26T15:32:41;11.60;1.00
2657;DHT22;1338;48.176;11.792;2023-04-26T15:35:11;10.90;1.00
2657;DHT22;1338;48.176;11.792;2023-04-26T15:37:42;12.10;1.00
2657;DHT22;1338;48.176;11.792;2023-04-26T15:40:11;12.70;1.00
2657;DHT22;1338;48.176;11.792;2023-04-26T15:42:40;12.50;1.00
2657;DHT22;1338;48.176;11.792;2023-04-26T15:45:08;12.70;1.00
2657;DHT22;1338;48.176;11.792;2023-04-26T15:47:37;12.50;1.00
2657;DHT22;1338;48.176;11.792;2023-04-26T15:50:06;13.10;1.00
2657;DHT22;1338;48.176;11.792;2023-04-26T15:52:35;12.70;1.00
2657;DHT22;1338;48.176;11.792;2023-04-26T15:55:07;12.80;1.00
2657;DHT22;1338;48.176;11.792;2023-04-26T15:57:35;12.60;1.00
2657;DHT22;1338;48.176;11.792;2023-04-26T16:00:05;12.60;1.00
2657;DHT22;1338;48.176;11.792;2023-04-26T16:02:35;12.70;1.00
2657;DHT22;1338;48.176;11.792;2023-04-26T16:05:04;12.30;1.00
2657;DHT22;1338;48.176;11.792;2023-04-26T16:07:34;11.40;1.00
2657;DHT22;1338;48.176;11.792;2023-04-26T16:10:07;12.10;1.00
2657;DHT22;1338;48.176;11.792;2023-04-26T16:12:36;11.60;1.00
2657;DHT22;1338;48.176;11.792;2023-04-26T16:15:08;11.70;1.00
2657;DHT22;1338;48.176;11.792;2023-04-26T16:17:36;12.00;1.00
2657;DHT22;1338;48.176;11.792;2023-04-26T16:20:06;12.40;1.00
2657;DHT22;1338;48.176;11.792;2023-04-26T16:22:35;12.10;1.00
2657;DHT22;1338;48.176;11.792;2023-04-26T16:25:04;11.40;1.00
2657;DHT22;1338;48.176;11.792;2023-04-26T16:27:35;11.70;1.00
2657;DHT22;1338;48.176;11.792;2023-04-26T16:30:05;11.30;1.00